Tuesday, June 28, 2016
06:00 UTC
  |  Log In   |  Register Free
Airport Search:

Firelands Community Hospital Nr 2 Airport
(OI87)

Firelands Community Hospital Nr 2 Airport Diagram
No Airport Diagram Available

FAA data valid effective May 26 2016 - Jul 21 2016 (unless otherwise noted).

 
 
 
 
 
 
 
 
 
 
 
 
 
 
Current Aviation Weather for OI87

Weather Summary


Current weather conditions are not available for OI87 - The nearest NOAA weather station is at PCW, (8.3 nm NW from OI87)

The most recent METAR observation for OI87 was updated at: 12:53 UTC
METAR for OI87 is not available. Closest METAR is for KLPR 24.8 nm NW
KLPR  (24.8 nm NW)   (most recent observation was updated at 28:05 UTC)
280553Z AUTO 34003KT 10SM CLR 18/16 A2999 RMK AO2 SLP148 T01830156 10300 20183 50003 TSNO

TAF for OI87 is not available.
GlobalAir.com is loading additional information.
 Current Weather at LPR
68.0 F° (20.0 C°)

North winds at 4.6 mph
Pressure:
29.99 in
Humidity:
76%
Wind:
North at 4.6 mph
Dew Point:
60.1 F° (15.6 C°)
Visibility:
10.00 mi
OI87 NOAA Radar




Find All Airport Services Find A Hotel Find A Rental Car Find A Golf Course Find A Restaurant $100 Hamburger



Airport Weather Forecast for OI87

Translated METAR for KPCW (0556 UTC)
METAR:
KPCW 280556Z AUTO 04004KT 10SM CLR 20/17 A2998 RMK AO2 PWINO 50008
Conditions at:
KPCW (Erie-Ottawa Intl, OH) observed 0556 UTC 28 June 2016
Temperature:
20°C (68°F)
Dewpoint:
17°C (62.6°F) [RH = 82.9]
Pressure:
29.98 inches Hg (1015.2 mb)
Winds:
from the NE (040 degrees) at 4.6 mph (4 knots: 2.1 m/s)
Visibility:
10 mile(s)
Ceiling:
at least 12,000 feet AGL
Clouds:
Clear below 12,000 feet AGL
Remarks:
site is un-manned
site is automated and HAS a precipitation sensor
precipitation identifier sensor not available

Translated TAF for TAF for OI87 is not available. Refer to local area forecast.
FBO's on the Field
FBO Company Facility Photos Services Transportation Aviation Fuel Prices: Prices include tax
Catering Weather Repair Courtesy Rental Type 100LL JetA JetA+ MOGAS 8087
 
Add another FBO Facility Photos Catering Weather Repair Courtesy Rental Type 100LL JetA JetA+ MOGAS 8087
Services Transportation Aviation Fuel Prices: Prices include tax
There are no FBO's currently reporting fuel at OI87. List your FBO now


model-print
model-print
model-print
model-print